createdAt,value
2023-05-21T00:00:28.868Z,10.13
2023-05-21T00:02:09.273Z,10.12
2023-05-21T00:03:49.975Z,10.09
2023-05-21T00:05:30.080Z,10.06
2023-05-21T00:07:10.486Z,10
2023-05-21T00:08:50.991Z,10
2023-05-21T00:10:31.304Z,9.95
2023-05-21T00:12:11.671Z,9.9
2023-05-21T00:13:52.122Z,9.89
2023-05-21T00:15:32.539Z,9.86
2023-05-21T00:17:12.984Z,9.84
2023-05-21T00:18:53.351Z,9.84
2023-05-21T00:20:33.789Z,9.81
2023-05-21T00:22:14.299Z,9.81
2023-05-21T00:23:54.742Z,9.78
2023-05-21T00:25:35.266Z,9.74
2023-05-21T00:27:15.552Z,9.69
2023-05-21T00:28:55.955Z,9.69
2023-05-21T00:30:36.405Z,9.65
2023-05-21T00:32:16.754Z,9.63
2023-05-21T00:33:57.152Z,9.63
2023-05-21T00:35:37.664Z,9.66
2023-05-21T00:37:17.951Z,9.62
2023-05-21T00:38:58.324Z,9.58
2023-05-21T00:40:38.836Z,9.57
2023-05-21T00:42:19.233Z,9.57
2023-05-21T00:43:59.666Z,9.55
2023-05-21T00:45:40.105Z,9.51
2023-05-21T00:47:20.530Z,9.5
2023-05-21T00:49:00.844Z,9.47
2023-05-21T00:50:41.246Z,9.47
2023-05-21T00:52:21.685Z,9.5
2023-05-21T00:54:02.201Z,9.44
2023-05-21T00:55:42.618Z,9.42
2023-05-21T00:57:23.024Z,9.41
2023-05-21T00:59:03.443Z,9.37
2023-05-21T01:00:43.881Z,9.35
2023-05-21T01:02:24.630Z,9.31
2023-05-21T01:04:04.704Z,9.29
2023-05-21T01:05:45.254Z,9.27
2023-05-21T01:07:25.654Z,9.23
2023-05-21T01:09:06.080Z,9.2
2023-05-21T01:10:46.451Z,9.19
2023-05-21T01:12:26.806Z,9.16
2023-05-21T01:14:07.239Z,9.13
2023-05-21T01:15:47.673Z,9.16
2023-05-21T01:17:28.135Z,9.16
2023-05-21T01:19:08.659Z,9.11
2023-05-21T01:20:48.992Z,9.09
2023-05-21T01:22:29.493Z,9.07
2023-05-21T01:24:09.858Z,9.07
2023-05-21T01:25:50.298Z,9.04
2023-05-21T01:27:30.712Z,8.99
2023-05-21T01:29:11.129Z,9
2023-05-21T01:30:51.536Z,8.98
2023-05-21T01:32:32.056Z,8.94
2023-05-21T01:34:12.436Z,8.96
2023-05-21T01:35:52.855Z,8.96
2023-05-21T01:37:33.405Z,8.94
2023-05-21T01:39:13.802Z,8.87
2023-05-21T01:40:54.173Z,8.84
2023-05-21T01:42:34.563Z,8.8
2023-05-21T01:44:14.990Z,8.8
2023-05-21T01:45:55.607Z,8.79
2023-05-21T01:47:35.898Z,8.78
2023-05-21T01:49:16.336Z,8.79
2023-05-21T01:50:56.816Z,8.76
2023-05-21T01:52:37.202Z,8.73
2023-05-21T01:54:17.630Z,8.72
2023-05-21T01:55:58.034Z,8.71
2023-05-21T01:57:38.386Z,8.65
2023-05-21T01:59:18.698Z,8.63
2023-05-21T02:00:59.138Z,8.61
2023-05-21T02:02:39.559Z,8.59
2023-05-21T02:04:19.910Z,8.56
2023-05-21T02:06:00.297Z,8.59
2023-05-21T02:07:40.701Z,8.54
2023-05-21T02:09:21.133Z,8.58
2023-05-21T02:11:01.577Z,8.51
2023-05-21T02:12:41.917Z,8.51
2023-05-21T02:16:02.800Z,8.47
2023-05-21T02:17:43.201Z,8.44
2023-05-21T02:19:23.750Z,8.41
2023-05-21T02:21:04.055Z,8.4
2023-05-21T02:22:44.464Z,8.38
2023-05-21T02:24:24.862Z,8.4
2023-05-21T02:26:05.302Z,8.35
2023-05-21T02:27:45.648Z,8.37
2023-05-21T02:29:25.981Z,8.38
2023-05-21T02:31:06.455Z,8.35
2023-05-21T02:32:46.899Z,8.35
2023-05-21T02:34:27.409Z,8.35
2023-05-21T02:36:07.671Z,8.31
2023-05-21T02:37:48.098Z,8.28
2023-05-21T02:39:28.542Z,8.31
2023-05-21T02:41:08.955Z,8.28
2023-05-21T02:42:49.348Z,8.25
2023-05-21T02:44:29.850Z,8.3
2023-05-21T02:46:10.312Z,8.35
2023-05-21T02:47:50.638Z,8.38
2023-05-21T02:49:31.078Z,8.33
2023-05-21T02:51:11.444Z,8.35
2023-05-21T02:52:51.854Z,8.28
2023-05-21T02:54:32.259Z,8.25
2023-05-21T02:56:12.616Z,8.27
2023-05-21T02:57:53.035Z,8.24
2023-05-21T02:59:33.388Z,8.21
2023-05-21T03:01:13.812Z,8.24
2023-05-21T03:02:54.309Z,8.21
2023-05-21T03:04:34.603Z,8.18
2023-05-21T03:06:15.078Z,8.18
2023-05-21T03:07:55.425Z,8.15
2023-05-21T03:09:35.905Z,8.2
2023-05-21T03:11:16.264Z,8.2
2023-05-21T03:12:56.741Z,8.18
2023-05-21T03:14:37.120Z,8.17
2023-05-21T03:16:17.537Z,8.14
2023-05-21T03:17:58.115Z,8.14
2023-05-21T03:19:38.484Z,8.11
2023-05-21T03:21:18.896Z,8.13
2023-05-21T03:22:59.298Z,8.17
2023-05-21T03:24:39.741Z,8.15
2023-05-21T03:26:20.158Z,8.17
2023-05-21T03:28:00.656Z,8.18
2023-05-21T03:29:41.050Z,8.21
2023-05-21T03:31:21.487Z,8.2
2023-05-21T03:33:01.976Z,8.15
2023-05-21T03:34:42.315Z,8.17
2023-05-21T03:36:22.759Z,8.18
2023-05-21T03:38:03.147Z,8.17
2023-05-21T03:39:43.512Z,8.21
2023-05-21T03:41:23.913Z,8.35
2023-05-21T03:43:04.287Z,8.37
2023-05-21T03:44:44.652Z,8.38
2023-05-21T03:46:25.065Z,8.45
2023-05-21T03:48:05.468Z,8.47
2023-05-21T03:49:45.902Z,8.52
2023-05-21T03:51:26.272Z,8.49
2023-05-21T03:53:06.748Z,8.54
2023-05-21T03:54:47.168Z,8.55
2023-05-21T03:56:27.528Z,8.59
2023-05-21T03:58:07.889Z,8.65
2023-05-21T03:59:48.281Z,8.69
2023-05-21T04:01:28.788Z,8.69
2023-05-21T04:03:09.083Z,8.76
2023-05-21T04:04:49.488Z,8.84
2023-05-21T04:06:29.826Z,8.89
2023-05-21T04:08:10.217Z,8.96
2023-05-21T04:09:50.671Z,9.04
2023-05-21T04:11:31.112Z,9.09
2023-05-21T04:13:11.573Z,9.14
2023-05-21T04:14:51.989Z,9.21
2023-05-21T04:16:32.439Z,9.27
2023-05-21T04:18:12.855Z,9.31
2023-05-21T04:19:53.308Z,9.4
2023-05-21T04:21:33.735Z,9.48
2023-05-21T04:23:14.125Z,9.54
2023-05-21T04:24:54.557Z,9.61
2023-05-21T04:26:34.943Z,9.63
2023-05-21T04:28:15.415Z,9.69
2023-05-21T04:29:55.863Z,9.75
2023-05-21T04:31:36.328Z,9.81
2023-05-21T04:33:16.732Z,9.92
2023-05-21T04:34:57.190Z,9.96
2023-05-21T04:36:37.625Z,10.02
2023-05-21T04:38:18.051Z,10.1
2023-05-21T04:39:58.492Z,10.14
2023-05-21T04:41:38.881Z,10.2
2023-05-21T04:43:19.331Z,10.27
2023-05-21T04:44:59.677Z,10.35
2023-05-21T04:46:41.816Z,10.4
2023-05-21T04:48:20.488Z,10.47
2023-05-21T04:50:00.857Z,10.54
2023-05-21T04:51:41.256Z,10.58
2023-05-21T04:53:21.698Z,10.64
2023-05-21T04:55:02.214Z,10.71
2023-05-21T04:56:42.538Z,10.78
2023-05-21T04:58:22.929Z,10.84
2023-05-21T05:00:03.325Z,10.92
2023-05-21T05:01:43.756Z,11.01
2023-05-21T05:03:24.205Z,11.05
2023-05-21T05:05:04.636Z,11.16
2023-05-21T05:06:45.016Z,11.23
2023-05-21T05:08:25.443Z,11.34
2023-05-21T05:10:05.914Z,11.43
2023-05-21T05:11:46.455Z,11.52
2023-05-21T05:13:26.872Z,11.61
2023-05-21T05:15:07.260Z,11.67
2023-05-21T05:16:47.636Z,11.77
2023-05-21T05:18:28.086Z,11.82
2023-05-21T05:20:08.458Z,11.91
2023-05-21T05:21:48.858Z,12
2023-05-21T05:23:29.330Z,12.11
2023-05-21T05:25:09.775Z,12.17
2023-05-21T05:26:50.230Z,12.22
2023-05-21T05:28:30.652Z,12.31
2023-05-21T05:30:11.137Z,12.36
2023-05-21T05:31:51.570Z,12.45
2023-05-21T05:33:32.109Z,12.52
2023-05-21T05:35:12.577Z,12.6
2023-05-21T05:36:52.996Z,12.63
2023-05-21T05:38:33.515Z,12.7
2023-05-21T05:40:13.976Z,12.73
2023-05-21T05:41:54.380Z,12.79
2023-05-21T05:43:34.853Z,12.86
2023-05-21T05:45:15.384Z,12.88
2023-05-21T05:46:55.800Z,12.96
2023-05-21T05:48:36.268Z,13
2023-05-21T05:50:16.661Z,13.08
2023-05-21T05:51:57.094Z,13.13
2023-05-21T05:53:37.422Z,13.17
2023-05-21T05:55:17.774Z,13.24
2023-05-21T05:56:58.199Z,13.31
2023-05-21T05:58:38.675Z,13.38
2023-05-21T06:00:19.064Z,13.46
2023-05-21T06:01:59.430Z,13.52
2023-05-21T06:03:39.853Z,13.59
2023-05-21T06:05:20.271Z,13.68
2023-05-21T06:07:00.722Z,13.77
2023-05-21T06:08:41.196Z,13.84
2023-05-21T06:10:21.685Z,13.92
2023-05-21T06:12:02.176Z,14.02
2023-05-21T06:13:42.554Z,14.13
2023-05-21T06:15:23.050Z,14.23
2023-05-21T06:17:03.531Z,14.27
2023-05-21T06:18:44.114Z,14.42
2023-05-21T06:20:24.456Z,14.53
2023-05-21T06:22:04.892Z,14.62
2023-05-21T06:23:45.342Z,14.69
2023-05-21T06:25:25.751Z,14.76
2023-05-21T06:27:06.239Z,14.83
2023-05-21T06:28:46.750Z,14.96
2023-05-21T06:30:27.197Z,15
2023-05-21T06:32:07.515Z,15.1
2023-05-21T06:33:48.128Z,15.16
2023-05-21T06:35:28.512Z,15.25
2023-05-21T06:37:08.904Z,15.31
2023-05-21T06:38:49.334Z,15.41
2023-05-21T06:40:29.794Z,15.51
2023-05-21T06:42:10.306Z,15.61
2023-05-21T06:43:50.768Z,15.67
2023-05-21T06:45:31.232Z,15.72
2023-05-21T06:47:11.621Z,15.77
2023-05-21T06:48:52.183Z,15.84
2023-05-21T06:50:32.604Z,15.91
2023-05-21T06:52:13.080Z,15.98
2023-05-21T06:53:53.600Z,16.08
2023-05-21T06:55:34.095Z,16.19
2023-05-21T06:57:14.404Z,16.25
2023-05-21T06:58:54.852Z,16.25
2023-05-21T07:00:35.207Z,16.29
2023-05-21T07:02:15.679Z,16.4
2023-05-21T07:03:56.076Z,16.46
2023-05-21T07:05:36.750Z,16.56
2023-05-21T07:07:17.051Z,16.61
2023-05-21T07:08:57.446Z,16.73
2023-05-21T07:10:38.086Z,16.81
2023-05-21T07:12:18.417Z,16.95
2023-05-21T07:13:58.764Z,17.04
2023-05-21T07:15:39.205Z,17.18
2023-05-21T07:17:19.551Z,17.29
2023-05-21T07:19:00.118Z,17.4
2023-05-21T07:20:40.562Z,17.65
2023-05-21T07:22:21.023Z,17.84
2023-05-21T07:24:01.424Z,17.94
2023-05-21T07:25:41.810Z,18.09
2023-05-21T07:27:25.916Z,18.15
2023-05-21T07:29:02.641Z,18.19
2023-05-21T07:30:43.067Z,18.31
2023-05-21T07:32:23.597Z,18.45
2023-05-21T07:34:03.891Z,18.63
2023-05-21T07:35:44.342Z,18.72
2023-05-21T07:37:24.779Z,18.82
2023-05-21T07:39:05.226Z,18.93
2023-05-21T07:40:45.644Z,19.03
2023-05-21T07:42:26.051Z,19.11
2023-05-21T07:44:06.448Z,19.24
2023-05-21T07:45:46.883Z,19.54
2023-05-21T07:47:27.367Z,19.85
2023-05-21T07:49:07.721Z,20.09
2023-05-21T07:50:48.147Z,20.26
2023-05-21T07:52:28.624Z,20.34
2023-05-21T07:54:08.972Z,20.48
2023-05-21T07:55:49.361Z,20.64
2023-05-21T07:57:29.733Z,20.79
2023-05-21T07:59:11.681Z,21.03
2023-05-21T08:00:50.547Z,21.13
2023-05-21T08:02:31.068Z,21.09
2023-05-21T08:04:11.537Z,21.26
2023-05-21T08:05:51.790Z,21.33
2023-05-21T08:07:32.341Z,21.43
2023-05-21T08:09:12.865Z,21.46
2023-05-21T08:10:53.261Z,21.49
2023-05-21T08:12:33.737Z,21.68
2023-05-21T08:14:14.147Z,22.08
2023-05-21T08:15:54.711Z,22.36
2023-05-21T08:17:35.112Z,22.39
2023-05-21T08:19:15.518Z,22.49
2023-05-21T08:20:55.849Z,22.62
2023-05-21T08:22:36.286Z,22.76
2023-05-21T08:24:16.779Z,22.93
2023-05-21T08:25:57.153Z,23.11
2023-05-21T08:27:37.625Z,23.34
2023-05-21T08:29:17.973Z,23.42
2023-05-21T08:30:58.399Z,23.63
2023-05-21T08:32:38.887Z,23.87
2023-05-21T08:34:19.267Z,24.12
2023-05-21T08:35:59.659Z,24.34
2023-05-21T08:37:40.110Z,24.47
2023-05-21T08:39:20.508Z,24.52
2023-05-21T08:41:00.874Z,24.71
2023-05-21T08:42:41.284Z,24.79
2023-05-21T08:44:21.703Z,24.92
2023-05-21T08:46:02.179Z,24.78
2023-05-21T08:47:42.577Z,25.05
2023-05-21T08:49:24.149Z,25.25
2023-05-21T08:51:03.530Z,25.36
2023-05-21T08:52:46.943Z,25.38
2023-05-21T08:54:24.344Z,25.32
2023-05-21T08:56:04.762Z,25.51
2023-05-21T08:57:45.164Z,25.54
2023-05-21T08:59:25.577Z,25.57
2023-05-21T09:01:05.969Z,25.48
2023-05-21T09:02:46.264Z,25.54
2023-05-21T09:04:26.783Z,25.51
2023-05-21T09:06:07.053Z,25.74
2023-05-21T09:07:47.452Z,25.78
2023-05-21T09:09:27.915Z,25.83
2023-05-21T09:11:08.332Z,25.74
2023-05-21T09:12:48.783Z,25.6
2023-05-21T09:14:29.196Z,25.47
2023-05-21T09:16:09.615Z,25.37
2023-05-21T09:17:50.000Z,25.44
2023-05-21T09:19:30.439Z,25.57
2023-05-21T09:21:10.842Z,25.71
2023-05-21T09:22:51.223Z,25.92
2023-05-21T09:24:33.118Z,25.96
2023-05-21T09:26:12.100Z,26.02
2023-05-21T09:27:52.540Z,25.81
2023-05-21T09:29:32.968Z,25.74
2023-05-21T09:31:13.474Z,25.51
2023-05-21T09:32:53.874Z,25.48
2023-05-21T09:34:34.245Z,25.48
2023-05-21T09:36:14.709Z,25.47
2023-05-21T09:37:55.178Z,25.38
2023-05-21T09:39:35.608Z,25.2
2023-05-21T09:41:19.836Z,25.17
2023-05-21T09:42:56.375Z,25.16
2023-05-21T09:44:36.824Z,24.98
2023-05-21T09:46:17.343Z,25.13
2023-05-21T09:47:57.687Z,25.29
2023-05-21T09:49:38.000Z,25.41
2023-05-21T09:51:18.431Z,25.7
2023-05-21T09:52:58.868Z,25.96
2023-05-21T09:54:39.250Z,26.28
2023-05-21T09:56:19.804Z,26.59
2023-05-21T09:58:00.147Z,26.83
2023-05-21T09:59:40.455Z,27.18
2023-05-21T10:01:20.875Z,27.34
2023-05-21T10:03:01.356Z,27.46
2023-05-21T10:04:41.728Z,27.65
2023-05-21T10:06:22.147Z,27.75
2023-05-21T10:08:02.597Z,28.01
2023-05-21T10:09:43.095Z,28.24
2023-05-21T10:11:23.515Z,28.27
2023-05-21T10:13:04.009Z,28.37
2023-05-21T10:14:44.403Z,28.55
2023-05-21T10:16:24.824Z,28.58
2023-05-21T10:18:05.296Z,28.86
2023-05-21T10:19:45.686Z,29.12
2023-05-21T10:21:25.987Z,29.26
2023-05-21T10:23:06.382Z,29.36
2023-05-21T10:24:46.831Z,29.38
2023-05-21T10:26:27.141Z,29.21
2023-05-21T10:28:07.431Z,29.36
2023-05-21T10:29:47.847Z,29.53
2023-05-21T10:31:28.310Z,29.56
2023-05-21T10:33:08.821Z,29.6
2023-05-21T10:34:49.179Z,29.87
2023-05-21T10:36:29.565Z,29.91
2023-05-21T10:38:10.008Z,29.92
2023-05-21T10:39:50.338Z,30.32
2023-05-21T10:41:30.793Z,30.4
2023-05-21T10:43:11.238Z,30.3
2023-05-21T10:44:51.644Z,30.52
2023-05-21T10:46:32.079Z,30.54
2023-05-21T10:48:12.574Z,30.57
2023-05-21T10:49:52.994Z,30.84
2023-05-21T10:51:33.379Z,30.97
2023-05-21T10:53:13.754Z,30.91
2023-05-21T10:54:54.130Z,30.91
2023-05-21T10:56:34.526Z,30.93
2023-05-21T10:58:14.814Z,30.93
2023-05-21T10:59:55.137Z,30.88
2023-05-21T11:01:35.504Z,30.93
2023-05-21T11:03:15.874Z,30.83
2023-05-21T11:04:56.207Z,30.67
2023-05-21T11:06:36.638Z,30.67
2023-05-21T11:08:17.073Z,30.73
2023-05-21T11:09:57.502Z,30.64
2023-05-21T11:11:37.910Z,30.4
2023-05-21T11:13:18.336Z,30.29
2023-05-21T11:14:58.746Z,30.19
2023-05-21T11:16:39.156Z,30.19
2023-05-21T11:18:19.604Z,30.26
2023-05-21T11:20:00.098Z,30.16
2023-05-21T11:21:40.540Z,30.01
2023-05-21T11:23:20.985Z,29.91
2023-05-21T11:25:01.371Z,29.85
2023-05-21T11:26:41.823Z,29.85
2023-05-21T11:28:22.225Z,29.87
2023-05-21T11:30:02.531Z,29.85
2023-05-21T11:31:42.851Z,29.82
2023-05-21T11:33:23.136Z,29.88
2023-05-21T11:35:03.419Z,29.75
2023-05-21T11:36:43.716Z,29.71
2023-05-21T11:38:24.099Z,29.78
2023-05-21T11:40:04.551Z,29.48
2023-05-21T11:41:45.014Z,29.1
2023-05-21T11:43:25.412Z,29.33
2023-05-21T11:45:05.796Z,29.47
2023-05-21T11:46:46.337Z,29.56
2023-05-21T11:48:27.673Z,29.44
2023-05-21T11:50:07.067Z,29.51
2023-05-21T11:51:47.561Z,29.4
2023-05-21T11:53:28.002Z,29.31
2023-05-21T11:55:08.429Z,29.13
2023-05-21T11:56:48.846Z,29.16
2023-05-21T11:58:29.234Z,29.24
2023-05-21T12:00:09.663Z,29.36
2023-05-21T12:01:50.019Z,29.27
2023-05-21T12:03:30.817Z,29.41
2023-05-21T12:05:12.549Z,29.43
2023-05-21T12:06:51.213Z,29.46
2023-05-21T12:08:31.581Z,29.47
2023-05-21T12:10:12.067Z,29.63
2023-05-21T12:11:52.377Z,29.61
2023-05-21T12:13:32.883Z,29.41
2023-05-21T12:15:13.355Z,29.26
2023-05-21T12:16:53.921Z,29.38
2023-05-21T12:18:34.201Z,29.5
2023-05-21T12:20:14.591Z,29.12
2023-05-21T12:21:55.005Z,29.16
2023-05-21T12:23:35.491Z,29.41
2023-05-21T12:25:15.889Z,29.48
2023-05-21T12:26:56.251Z,29.5
2023-05-21T12:28:36.714Z,29.43
2023-05-21T12:30:17.163Z,29.31
2023-05-21T12:31:57.565Z,29.41
2023-05-21T12:33:38.032Z,29.75
2023-05-21T12:35:18.451Z,30.16
2023-05-21T12:36:58.648Z,30.62
2023-05-21T12:38:38.926Z,30.75
2023-05-21T12:40:19.261Z,30.81
2023-05-21T12:41:59.556Z,31.07
2023-05-21T12:43:39.873Z,31.32
2023-05-21T12:45:20.366Z,31.35
2023-05-21T12:47:00.795Z,31.59
2023-05-21T12:48:41.242Z,31.68
2023-05-21T12:50:21.692Z,31.75
2023-05-21T12:52:02.127Z,31.7
2023-05-21T12:53:42.583Z,31.76
2023-05-21T12:55:23.006Z,31.84
2023-05-21T12:57:03.477Z,31.84
2023-05-21T12:58:43.906Z,31.97
2023-05-21T13:00:24.322Z,32.16
2023-05-21T13:02:04.783Z,32.18
2023-05-21T13:03:45.280Z,32.32
2023-05-21T13:05:25.715Z,32.42
2023-05-21T13:07:06.016Z,32.59
2023-05-21T13:08:46.302Z,32.55
2023-05-21T13:10:26.667Z,32.54
2023-05-21T13:12:07.070Z,32.38
2023-05-21T13:13:47.490Z,32.41
2023-05-21T13:15:27.947Z,32.38
2023-05-21T13:17:08.459Z,32.34
2023-05-21T13:18:48.927Z,32.26
2023-05-21T13:20:29.447Z,32.3
2023-05-21T13:22:09.808Z,32.39
2023-05-21T13:23:50.268Z,32.44
2023-05-21T13:25:30.705Z,32.34
2023-05-21T13:27:11.172Z,32.52
2023-05-21T13:28:51.631Z,32.66
2023-05-21T13:30:31.936Z,32.65
2023-05-21T13:32:12.389Z,32.75
2023-05-21T13:33:52.818Z,32.58
2023-05-21T13:35:33.226Z,32.65
2023-05-21T13:37:13.579Z,32.59
2023-05-21T13:38:53.907Z,32.61
2023-05-21T13:40:35.987Z,32.65
2023-05-21T13:42:14.579Z,32.93
2023-05-21T13:43:54.967Z,32.99
2023-05-21T13:45:35.349Z,32.86
2023-05-21T13:47:15.816Z,32.98
2023-05-21T13:48:56.264Z,32.85
2023-05-21T13:50:36.950Z,32.82
2023-05-21T13:52:17.144Z,32.64
2023-05-21T13:53:57.486Z,32.81
2023-05-21T13:55:37.918Z,33.01
2023-05-21T13:57:18.376Z,33.1
2023-05-21T13:58:58.785Z,32.95
2023-05-21T14:00:39.516Z,33.12
2023-05-21T14:02:19.659Z,33.24
2023-05-21T14:03:59.895Z,33.4
2023-05-21T14:05:40.294Z,33.44
2023-05-21T14:07:20.741Z,33.29
2023-05-21T14:09:01.214Z,33.14
2023-05-21T14:10:41.639Z,32.96
2023-05-21T14:12:21.957Z,33.05
2023-05-21T14:14:02.284Z,33.02
2023-05-21T14:15:42.753Z,33.06
2023-05-21T14:17:23.210Z,33.29
2023-05-21T14:19:03.648Z,33.51
2023-05-21T14:20:43.926Z,33.39
2023-05-21T14:22:24.461Z,33.17
2023-05-21T14:24:04.832Z,32.98
2023-05-21T14:25:45.278Z,33.01
2023-05-21T14:27:25.687Z,33.06
2023-05-21T14:29:06.172Z,33.09
2023-05-21T14:30:46.578Z,33.12
2023-05-21T14:32:27.278Z,33.2
2023-05-21T14:34:07.566Z,33.23
2023-05-21T14:35:47.989Z,32.86
2023-05-21T14:37:28.399Z,32.66
2023-05-21T14:39:08.844Z,32.59
2023-05-21T14:40:49.245Z,32.34
2023-05-21T14:42:30.541Z,32.39
2023-05-21T14:44:10.079Z,32.52
2023-05-21T14:45:50.500Z,32.59
2023-05-21T14:47:30.899Z,32.58
2023-05-21T14:49:11.262Z,32.3
2023-05-21T14:50:51.708Z,32.01
2023-05-21T14:52:32.237Z,31.68
2023-05-21T14:54:12.672Z,31.18
2023-05-21T14:55:53.067Z,30.93
2023-05-21T14:57:33.432Z,30.7
2023-05-21T14:59:13.871Z,30.69
2023-05-21T15:00:54.254Z,30.63
2023-05-21T15:02:34.837Z,30.52
2023-05-21T15:04:15.221Z,30.44
2023-05-21T15:05:55.562Z,30.43
2023-05-21T15:07:35.983Z,30.46
2023-05-21T15:09:16.396Z,30.36
2023-05-21T15:10:56.825Z,30.27
2023-05-21T15:12:37.248Z,30.26
2023-05-21T15:14:17.619Z,30.12
2023-05-21T15:15:58.084Z,30.06
2023-05-21T15:17:38.446Z,29.88
2023-05-21T15:19:18.804Z,29.72
2023-05-21T15:20:59.030Z,29.64
2023-05-21T15:22:39.365Z,29.63
2023-05-21T15:24:19.690Z,29.53
2023-05-21T15:25:59.951Z,29.44
2023-05-21T15:27:40.320Z,29.31
2023-05-21T15:29:20.876Z,29.1
2023-05-21T15:31:01.246Z,28.78
2023-05-21T15:32:41.650Z,28.38
2023-05-21T15:34:22.156Z,27.99
2023-05-21T15:36:02.709Z,27.7
2023-05-21T15:37:43.027Z,27.49
2023-05-21T15:39:23.431Z,27.32
2023-05-21T15:41:03.841Z,27.17
2023-05-21T15:42:44.315Z,27.05
2023-05-21T15:44:24.736Z,27.01
2023-05-21T15:46:05.193Z,26.9
2023-05-21T15:47:45.717Z,26.84
2023-05-21T15:49:26.162Z,26.86
2023-05-21T15:51:06.627Z,26.86
2023-05-21T15:52:46.972Z,26.93
2023-05-21T15:54:27.327Z,27.04
2023-05-21T15:56:07.752Z,27.28
2023-05-21T15:57:48.221Z,27.56
2023-05-21T15:59:28.577Z,27.8
2023-05-21T16:01:09.082Z,27.99
2023-05-21T16:02:49.443Z,28.11
2023-05-21T16:04:29.823Z,28.18
2023-05-21T16:06:10.236Z,28.37
2023-05-21T16:07:50.659Z,28.33
2023-05-21T16:09:31.073Z,28.35
2023-05-21T16:11:11.389Z,28.58
2023-05-21T16:12:51.783Z,28.71
2023-05-21T16:14:32.222Z,28.69
2023-05-21T16:16:12.580Z,28.64
2023-05-21T16:17:53.099Z,28.66
2023-05-21T16:19:33.548Z,28.73
2023-05-21T16:21:13.845Z,28.85
2023-05-21T16:22:54.287Z,28.86
2023-05-21T16:24:34.675Z,28.89
2023-05-21T16:26:15.094Z,28.85
2023-05-21T16:27:55.509Z,28.81
2023-05-21T16:29:36.405Z,28.62
2023-05-21T16:31:16.256Z,28.45
2023-05-21T16:32:56.770Z,28.47
2023-05-21T16:34:37.114Z,28.55
2023-05-21T16:36:18.116Z,28.65
2023-05-21T16:37:57.963Z,28.71
2023-05-21T16:39:38.389Z,28.69
2023-05-21T16:41:18.790Z,28.78
2023-05-21T16:43:01.800Z,28.85
2023-05-21T16:44:39.713Z,28.79
2023-05-21T16:46:20.165Z,28.72
2023-05-21T16:48:00.574Z,28.59
2023-05-21T16:49:40.953Z,28.54
2023-05-21T16:51:21.379Z,28.47
2023-05-21T16:53:01.786Z,28.38
2023-05-21T16:54:43.536Z,28.34
2023-05-21T16:56:22.708Z,28.43
2023-05-21T16:58:03.034Z,28.48
2023-05-21T16:59:43.416Z,28.38
2023-05-21T17:01:23.852Z,28.34
2023-05-21T17:03:04.395Z,28.21
2023-05-21T17:04:44.698Z,28.13
2023-05-21T17:06:25.106Z,28.01
2023-05-21T17:08:05.626Z,27.92
2023-05-21T17:09:46.072Z,27.82
2023-05-21T17:11:26.563Z,27.75
2023-05-21T17:13:20.886Z,27.53
2023-05-21T17:14:47.307Z,27.46
2023-05-21T17:16:27.704Z,27.45
2023-05-21T17:18:07.980Z,27.37
2023-05-21T17:19:48.207Z,27.32
2023-05-21T17:21:28.526Z,27.27
2023-05-21T17:23:08.993Z,27.12
2023-05-21T17:24:49.418Z,27.05
2023-05-21T17:26:29.882Z,26.97
2023-05-21T17:28:10.291Z,26.94
2023-05-21T17:29:50.728Z,26.87
2023-05-21T17:31:31.187Z,26.87
2023-05-21T17:33:11.614Z,26.74
2023-05-21T17:34:52.043Z,26.66
2023-05-21T17:36:32.497Z,26.62
2023-05-21T17:38:12.970Z,26.52
2023-05-21T17:39:53.450Z,26.4
2023-05-21T17:41:33.934Z,26.31
2023-05-21T17:43:14.406Z,26.23
2023-05-21T17:44:54.743Z,26.18
2023-05-21T17:46:35.092Z,26.05
2023-05-21T17:48:15.342Z,25.95
2023-05-21T17:49:55.717Z,25.88
2023-05-21T17:51:36.182Z,25.78
2023-05-21T17:53:16.636Z,25.71
2023-05-21T17:54:57.043Z,25.61
2023-05-21T17:56:37.446Z,25.54
2023-05-21T17:58:17.921Z,25.5
2023-05-21T17:59:58.344Z,25.46
2023-05-21T18:01:38.796Z,25.43
2023-05-21T18:03:19.264Z,25.34
2023-05-21T18:04:59.668Z,25.32
2023-05-21T18:06:40.093Z,25.27
2023-05-21T18:08:20.484Z,25.16
2023-05-21T18:10:00.974Z,25.1
2023-05-21T18:11:41.349Z,25
2023-05-21T18:13:21.740Z,24.9
2023-05-21T18:15:02.213Z,24.77
2023-05-21T18:16:42.550Z,24.74
2023-05-21T18:18:22.852Z,24.67
2023-05-21T18:20:03.137Z,24.57
2023-05-21T18:21:43.455Z,24.52
2023-05-21T18:23:23.744Z,24.48
2023-05-21T18:25:04.048Z,24.47
2023-05-21T18:26:44.362Z,24.42
2023-05-21T18:28:24.640Z,24.35
2023-05-21T18:30:04.998Z,24.28
2023-05-21T18:31:45.268Z,24.17
2023-05-21T18:33:25.545Z,24.1
2023-05-21T18:35:05.829Z,23.99
2023-05-21T18:36:46.157Z,23.93
2023-05-21T18:38:26.657Z,23.79
2023-05-21T18:40:07.090Z,23.7
2023-05-21T18:41:48.147Z,23.56
2023-05-21T18:43:27.876Z,23.42
2023-05-21T18:45:08.384Z,23.28
2023-05-21T18:46:48.796Z,23.15
2023-05-21T18:48:29.196Z,23.01
2023-05-21T18:50:09.631Z,22.9
2023-05-21T18:51:50.004Z,22.76
2023-05-21T18:53:30.470Z,22.63
2023-05-21T18:55:11.000Z,22.56
2023-05-21T18:56:51.267Z,22.43
2023-05-21T18:58:31.653Z,22.34
2023-05-21T19:00:12.089Z,22.23
2023-05-21T19:01:52.513Z,22.08
2023-05-21T19:03:32.898Z,21.94
2023-05-21T19:05:13.319Z,21.82
2023-05-21T19:06:53.633Z,21.68
2023-05-21T19:08:33.919Z,21.56
2023-05-21T19:10:14.223Z,21.44
2023-05-21T19:11:54.544Z,21.27
2023-05-21T19:13:34.843Z,21.12
2023-05-21T19:15:15.129Z,21.02
2023-05-21T19:16:55.452Z,20.98
2023-05-21T19:18:35.764Z,20.91
2023-05-21T19:20:16.068Z,20.79
2023-05-21T19:21:56.516Z,20.67
2023-05-21T19:23:51.256Z,20.55
2023-05-21T19:25:17.300Z,20.46
2023-05-21T19:26:57.751Z,20.36
2023-05-21T19:28:38.198Z,20.33
2023-05-21T19:30:18.571Z,20.26
2023-05-21T19:31:58.944Z,20.2
2023-05-21T19:33:39.431Z,20.17
2023-05-21T19:35:19.811Z,20.12
2023-05-21T19:37:00.188Z,20.03
2023-05-21T19:38:40.582Z,20
2023-05-21T19:40:21.014Z,19.95
2023-05-21T19:42:01.466Z,19.93
2023-05-21T19:43:41.893Z,19.95
2023-05-21T19:45:22.319Z,19.85
2023-05-21T19:47:02.669Z,19.8
2023-05-21T19:48:43.124Z,19.79
2023-05-21T19:50:23.461Z,19.82
2023-05-21T19:52:03.889Z,19.76
2023-05-21T19:53:44.302Z,19.72
2023-05-21T19:55:25.028Z,19.65
2023-05-21T19:57:05.158Z,19.64
2023-05-21T19:58:45.555Z,19.55
2023-05-21T20:00:25.976Z,19.54
2023-05-21T20:02:06.348Z,19.5
2023-05-21T20:03:46.825Z,19.41
2023-05-21T20:05:27.194Z,19.34
2023-05-21T20:07:07.527Z,19.31
2023-05-21T20:08:47.870Z,19.24
2023-05-21T20:10:28.295Z,19.13
2023-05-21T20:12:08.653Z,19.07
2023-05-21T20:13:49.061Z,19.02
2023-05-21T20:15:29.434Z,18.97
2023-05-21T20:17:09.921Z,18.87
2023-05-21T20:18:50.365Z,18.82
2023-05-21T20:20:30.803Z,18.76
2023-05-21T20:22:11.217Z,18.75
2023-05-21T20:23:51.624Z,18.7
2023-05-21T20:25:32.013Z,18.59
2023-05-21T20:27:12.308Z,18.54
2023-05-21T20:28:52.723Z,18.45
2023-05-21T20:30:33.090Z,18.39
2023-05-21T20:32:13.661Z,18.29
2023-05-21T20:33:54.127Z,18.19
2023-05-21T20:35:34.537Z,18.14
2023-05-21T20:37:14.959Z,18.01
2023-05-21T20:38:55.410Z,18.01
2023-05-21T20:40:35.937Z,17.96
2023-05-21T20:42:16.244Z,17.91
2023-05-21T20:43:56.643Z,17.81
2023-05-21T20:45:37.111Z,17.77
2023-05-21T20:47:17.529Z,17.72
2023-05-21T20:48:57.968Z,17.66
2023-05-21T20:50:38.655Z,17.6
2023-05-21T20:52:18.781Z,17.52
2023-05-21T20:53:59.196Z,17.46
2023-05-21T20:55:39.482Z,17.42
2023-05-21T20:57:19.788Z,17.33
2023-05-21T20:59:00.227Z,17.32
2023-05-21T21:00:40.600Z,17.28
2023-05-21T21:02:21.049Z,17.25
2023-05-21T21:04:01.448Z,17.22
2023-05-21T21:05:41.768Z,17.23
2023-05-21T21:07:22.157Z,17.25
2023-05-21T21:09:02.604Z,17.15
2023-05-21T21:10:43.077Z,17.09
2023-05-21T21:12:26.487Z,17.15
2023-05-21T21:14:03.998Z,17.19
2023-05-21T21:15:44.545Z,17.15
2023-05-21T21:17:24.951Z,17.15
2023-05-21T21:19:05.346Z,17.17
2023-05-21T21:20:45.734Z,17.15
2023-05-21T21:22:26.119Z,17.15
2023-05-21T21:24:06.567Z,17.14
2023-05-21T21:25:46.934Z,17.15
2023-05-21T21:27:27.305Z,17.22
2023-05-21T21:29:07.628Z,17.35
2023-05-21T21:30:47.903Z,17.39
2023-05-21T21:32:28.236Z,17.46
2023-05-21T21:34:08.581Z,17.63
2023-05-21T21:35:48.814Z,17.7
2023-05-21T21:37:29.118Z,17.73
2023-05-21T21:39:09.429Z,18
2023-05-21T21:40:49.735Z,18.17
2023-05-21T21:42:30.076Z,18.31
2023-05-21T21:44:10.426Z,18.45
2023-05-21T21:45:50.815Z,18.58
2023-05-21T21:47:31.192Z,18.58